レイキャビク/ケフラヴィーク の空港の天気 - METARとTAF

ケフラヴィーク国際空港 ( BIKF / KEF ) - アイスランド ケプラヴィーク
飛行場実況気象(Metar)
観測時間08/17 03:30 GMT (08/17 03:30 UTC)
風向・風速北東 3m/s
視程10km以上
天気現象
なし
気温10℃
湿度94%
気圧1000hPa
METARBIKF 170330Z 05006KT CAVOK 10/09 Q1000
過去の天気等 Google飛行場航空写真 Wunderground天気予報

過去48時間のMETAR

飛行場予報(TAF)
発表時間: 8/17 02:00 GMT (8/17 02:00 UTC)
予報対象時間: 17日3時 GMT ~ 18日3時 GMT
風向・風速北東 3m/s
視程10km以上
なし
17日13時 GMT ~ 17日15時 GMT に徐々に
風向・風速北北東 8m/s
TAF BIKF 170200Z 1703/1803 04005KT CAVOK TX14/1716Z TN08/1704Z
BECMG 1713/1715 02015KT